Hartford, Connecticut
Traffic Map
Current Weather Conditions
Hartford, Connecticut
Clear
Clear
66°
Feels Like: 66°
Wind Chill: 66° Ceiling: Unl
Heat Index: 66° Visibility: 10mi
Dew Point: 60° Wind: 7mph
Humidity: 81% Direction: 140° (SE)
Pressure: 29.86in Gusts: 0mph
Raw Report DataKHFD 020453Z AUTO 14006KT 10SM CLR 19/16 A2986 RMK AO2 SLP110 T01890156 402830183
Traffic Incident Summary
Active as of:
Severity:
Category:
InformationThere was an issue retrieving the traffic information for this location. Please try a different location or try again shortly.
Advertisements
Track Severe Weather on mobile